createdAt,value
2018-12-09T00:02:23.877Z,92680.72
2018-12-09T00:04:52.035Z,92670.03
2018-12-09T00:07:20.251Z,92668.94
2018-12-09T00:09:48.396Z,92665.14
2018-12-09T00:12:16.553Z,92674.08
2018-12-09T00:14:44.609Z,92672.77
2018-12-09T00:17:12.689Z,92666.45
2018-12-09T00:19:40.747Z,92653.72
2018-12-09T00:22:08.849Z,92666.77
2018-12-09T00:24:36.974Z,92670.16
2018-12-09T00:27:05.167Z,92671.16
2018-12-09T00:29:33.302Z,92647.64
2018-12-09T00:32:01.422Z,92647.09
2018-12-09T00:34:29.536Z,92642.66
2018-12-09T00:36:57.574Z,92653.25
2018-12-09T00:39:25.709Z,92620.89
2018-12-09T00:41:53.761Z,92629.34
2018-12-09T00:44:21.805Z,92647.70
2018-12-09T00:46:50.026Z,92658.11
2018-12-09T00:49:18.134Z,92654.65
2018-12-09T00:51:46.208Z,92642.73
2018-12-09T00:54:14.284Z,92635.29
2018-12-09T00:56:42.447Z,92643.94
2018-12-09T00:59:10.510Z,92648.05
2018-12-09T01:01:38.564Z,92649.90
2018-12-09T01:04:06.697Z,92647.42
2018-12-09T01:06:34.813Z,92636.36
2018-12-09T01:09:03.245Z,92647.30
2018-12-09T01:11:31.496Z,92642.20
2018-12-09T01:13:59.599Z,92637.73
2018-12-09T01:16:27.710Z,92659.42
2018-12-09T01:18:55.885Z,92682.63
2018-12-09T01:21:24.002Z,92688.02
2018-12-09T01:23:52.029Z,92684.44
2018-12-09T01:26:20.174Z,92662.23
2018-12-09T01:28:48.230Z,92654.47
2018-12-09T01:31:16.460Z,92655.91
2018-12-09T01:33:44.581Z,92653.59
2018-12-09T01:36:12.694Z,92651.09
2018-12-09T01:38:41.029Z,92666.34
2018-12-09T01:41:09.254Z,92671.88
2018-12-09T01:43:37.303Z,92678.66
2018-12-09T01:46:05.429Z,92689.89
2018-12-09T01:48:33.527Z,92717.39
2018-12-09T01:51:01.783Z,92734.91
2018-12-09T01:54:38.323Z,92730.14
2018-12-09T01:57:06.559Z,92756.09
2018-12-09T01:59:34.724Z,92740.59
2018-12-09T02:02:02.960Z,92754.11
2018-12-09T02:04:31.156Z,92754.69
2018-12-09T02:06:59.307Z,92779.23
2018-12-09T02:09:27.463Z,92757.82
2018-12-09T02:11:55.567Z,92765.42
2018-12-09T02:14:23.607Z,92749.78
2018-12-09T02:16:51.817Z,92755.26
2018-12-09T02:19:22.897Z,92753.45
2018-12-09T02:21:51.321Z,92738.16
2018-12-09T02:24:20.097Z,92741.70
2018-12-09T02:26:48.206Z,92724.67
2018-12-09T02:29:16.338Z,92732.02
2018-12-09T02:31:44.543Z,92732.92
2018-12-09T02:34:12.652Z,92738.58
2018-12-09T02:36:40.771Z,92728.67
2018-12-09T02:39:10.221Z,92728.92
2018-12-09T02:41:38.426Z,92743.06
2018-12-09T02:44:06.531Z,92729.45
2018-12-09T02:46:34.950Z,92725.46
2018-12-09T02:49:03.227Z,92733.16
2018-12-09T02:51:31.400Z,92744.30
2018-12-09T02:53:59.595Z,92746.03
2018-12-09T02:56:27.681Z,92739.61
2018-12-09T02:58:55.890Z,92739.47
2018-12-09T03:01:24.072Z,92729.70
2018-12-09T03:03:52.306Z,92742.14
2018-12-09T03:06:20.409Z,92756.22
2018-12-09T03:08:48.437Z,92742.12
2018-12-09T03:11:16.502Z,92743.96
2018-12-09T03:13:44.546Z,92757.95
2018-12-09T03:18:54.437Z,92757.31
2018-12-09T03:21:22.520Z,92754.88
2018-12-09T03:23:50.742Z,92746.09
2018-12-09T03:26:18.789Z,92748.10
2018-12-09T03:28:46.967Z,92742.49
2018-12-09T03:31:15.020Z,92742.75
2018-12-09T03:33:43.218Z,92755.70
2018-12-09T03:36:11.380Z,92762.39
2018-12-09T03:38:39.415Z,92764.40
2018-12-09T03:41:07.670Z,92764.48
2018-12-09T03:43:35.766Z,92767.94
2018-12-09T03:46:03.926Z,92762.63
2018-12-09T03:48:32.103Z,92771.08
2018-12-09T03:51:00.207Z,92770.87
2018-12-09T03:53:28.289Z,92763.23
2018-12-09T03:55:56.418Z,92770.28
2018-12-09T03:58:24.533Z,92782.97
2018-12-09T04:01:04.691Z,92767.47
2018-12-09T04:03:32.754Z,92778.28
2018-12-09T04:06:00.982Z,92784.83
2018-12-09T04:08:29.115Z,92788.80
2018-12-09T04:10:57.357Z,92785.25
2018-12-09T04:13:25.489Z,92775.63
2018-12-09T04:15:53.832Z,92780.86
2018-12-09T04:18:22.082Z,92783.23
2018-12-09T04:20:50.150Z,92788.36
2018-12-09T04:23:20.053Z,92776.40
2018-12-09T04:25:48.224Z,92780.25
2018-12-09T04:28:16.398Z,92794.43
2018-12-09T04:30:44.507Z,92798.09
2018-12-09T04:33:12.655Z,92803.78
2018-12-09T04:35:40.832Z,92810.52
2018-12-09T04:38:08.878Z,92806.75
2018-12-09T04:40:37.014Z,92805.09
2018-12-09T04:43:05.225Z,92805.05
2018-12-09T04:45:33.354Z,92789.91
2018-12-09T04:48:01.411Z,92798.95
2018-12-09T04:50:29.548Z,92797.31
2018-12-09T04:52:57.657Z,92792.92
2018-12-09T04:55:25.868Z,92796.45
2018-12-09T05:00:32.530Z,92810.45
2018-12-09T05:03:00.582Z,92811.30
2018-12-09T05:05:28.847Z,92809.21
2018-12-09T05:07:56.977Z,92825.42
2018-12-09T05:10:25.093Z,92813.26
2018-12-09T05:12:53.291Z,92814.33
2018-12-09T05:15:21.398Z,92825.45
2018-12-09T05:17:49.502Z,92825.14
2018-12-09T05:20:17.666Z,92815.74
2018-12-09T05:22:45.883Z,92829.78
2018-12-09T05:25:14.399Z,92830.93
2018-12-09T05:27:42.506Z,92831.01
2018-12-09T05:30:10.658Z,92840.31
2018-12-09T05:32:38.795Z,92843.13
2018-12-09T05:35:06.953Z,92834.56
2018-12-09T05:37:35.355Z,92830.13
2018-12-09T05:40:03.640Z,92840.11
2018-12-09T05:42:31.789Z,92835.23
2018-12-09T05:45:00.101Z,92841.83
2018-12-09T05:47:28.248Z,92823.00
2018-12-09T05:49:56.504Z,92827.19
2018-12-09T05:52:24.612Z,92833.98
2018-12-09T05:54:52.665Z,92843.97
2018-12-09T05:57:21.701Z,92835.50
2018-12-09T05:59:49.891Z,92838.50
2018-12-09T06:02:29.329Z,92851.94
2018-12-09T06:04:57.558Z,92846.11
2018-12-09T06:07:25.707Z,92849.41
2018-12-09T06:09:53.840Z,92859.86
2018-12-09T06:12:22.194Z,92843.73
2018-12-09T06:14:50.445Z,92857.36
2018-12-09T06:17:18.601Z,92854.03
2018-12-09T06:19:46.650Z,92867.74
2018-12-09T06:22:15.800Z,92856.90
2018-12-09T06:24:43.926Z,92867.95
2018-12-09T06:27:13.265Z,92860.41
2018-12-09T06:29:41.354Z,92862.02
2018-12-09T06:32:10.394Z,92865.22
2018-12-09T06:34:38.441Z,92856.31
2018-12-09T06:37:06.503Z,92867.75
2018-12-09T06:39:34.559Z,92855.62
2018-12-09T06:42:02.606Z,92860.26
2018-12-09T06:44:30.745Z,92854.45
2018-12-09T06:46:58.801Z,92875.53
2018-12-09T06:49:26.879Z,92871.98
2018-12-09T06:51:54.987Z,92881.58
2018-12-09T06:54:23.279Z,92877.68
2018-12-09T06:56:51.480Z,92886.91
2018-12-09T06:59:19.534Z,92896.20
2018-12-09T07:01:47.597Z,92902.50
2018-12-09T07:04:15.741Z,92891.83
2018-12-09T07:06:43.901Z,92901.58
2018-12-09T07:09:11.948Z,92904.80
2018-12-09T07:11:40.177Z,92906.66
2018-12-09T07:14:08.543Z,92905.23
2018-12-09T07:16:36.644Z,92918.33
2018-12-09T07:19:04.789Z,92924.39
2018-12-09T07:21:32.920Z,92925.33
2018-12-09T07:24:01.065Z,92936.60
2018-12-09T07:26:29.534Z,92929.84
2018-12-09T07:28:57.746Z,92929.48
2018-12-09T07:31:25.819Z,92927.14
2018-12-09T07:33:53.946Z,92931.56
2018-12-09T07:36:22.051Z,92934.20
2018-12-09T07:38:50.336Z,92946.45
2018-12-09T07:41:18.597Z,92945.02
2018-12-09T07:43:46.674Z,92947.98
2018-12-09T07:46:15.280Z,92947.49
2018-12-09T07:48:43.671Z,92959.67
2018-12-09T07:51:12.168Z,92954.41
2018-12-09T07:53:40.336Z,92953.69
2018-12-09T07:56:08.475Z,92965.91
2018-12-09T07:58:36.544Z,92949.77
2018-12-09T08:01:04.667Z,92962.88
2018-12-09T08:03:32.722Z,92966.20
2018-12-09T08:06:01.814Z,92969.38
2018-12-09T08:08:29.959Z,92966.06
2018-12-09T08:10:58.178Z,92967.33
2018-12-09T08:13:26.539Z,92979.66
2018-12-09T08:15:54.712Z,92970.39
2018-12-09T08:18:22.819Z,92981.21
2018-12-09T08:20:51.078Z,92977.76
2018-12-09T08:23:19.303Z,92992.00
2018-12-09T08:25:47.450Z,92972.19
2018-12-09T08:28:15.480Z,92988.25
2018-12-09T08:30:43.754Z,92995.20
2018-12-09T08:33:11.901Z,92988.94
2018-12-09T08:35:40.077Z,93002.86
2018-12-09T08:38:08.235Z,93005.34
2018-12-09T08:40:36.286Z,93015.17
2018-12-09T08:43:04.517Z,93013.42
2018-12-09T08:45:32.765Z,93001.16
2018-12-09T08:48:00.827Z,93018.60
2018-12-09T08:50:28.939Z,93006.03
2018-12-09T08:52:57.387Z,93022.09
2018-12-09T08:55:25.456Z,92994.94
2018-12-09T08:57:53.527Z,93001.26
2018-12-09T09:00:21.583Z,93002.63
2018-12-09T09:02:49.824Z,93025.11
2018-12-09T09:05:17.966Z,93022.91
2018-12-09T09:07:46.118Z,93023.02
2018-12-09T09:10:14.161Z,93029.58
2018-12-09T09:12:42.213Z,93005.58
2018-12-09T09:15:10.843Z,93035.72
2018-12-09T09:17:38.890Z,93027.08
2018-12-09T09:20:07.070Z,93015.18
2018-12-09T09:22:36.400Z,93033.31
2018-12-09T09:25:04.800Z,93017.45
2018-12-09T09:27:42.132Z,93027.72
2018-12-09T09:30:13.393Z,93038.80
2018-12-09T09:32:41.533Z,93043.20
2018-12-09T09:35:09.706Z,93045.75
2018-12-09T09:37:38.293Z,93041.61
2018-12-09T09:40:08.049Z,93055.84
2018-12-09T09:42:38.125Z,93050.70
2018-12-09T09:45:09.884Z,93043.50
2018-12-09T09:47:38.061Z,93048.70
2018-12-09T09:50:06.197Z,93054.95
2018-12-09T09:52:37.397Z,93053.56
2018-12-09T09:55:05.851Z,93064.94
2018-12-09T09:57:34.067Z,93068.29
2018-12-09T10:00:02.199Z,93077.32
2018-12-09T10:02:32.128Z,93075.70
2018-12-09T10:07:45.329Z,93115.38
2018-12-09T10:10:20.503Z,93139.78
2018-12-09T10:13:11.635Z,93148.05
2018-12-09T10:15:51.377Z,93157.89
2018-12-09T10:18:30.267Z,93151.20
2018-12-09T10:21:11.646Z,93163.84
2018-12-09T10:23:39.713Z,93173.06
2018-12-09T10:26:07.810Z,93178.95
2018-12-09T10:28:36.613Z,93192.49
2018-12-09T10:31:07.085Z,93197.89
2018-12-09T10:33:35.620Z,93191.83
2018-12-09T10:36:03.722Z,93190.20
2018-12-09T10:38:31.894Z,93203.64
2018-12-09T10:41:00.857Z,93203.42
2018-12-09T10:43:29.950Z,93199.58
2018-12-09T10:45:57.991Z,93199.92
2018-12-09T10:51:05.954Z,93201.28
2018-12-09T10:53:34.091Z,93204.28
2018-12-09T10:56:02.194Z,93203.92
2018-12-09T10:58:30.229Z,93204.26
2018-12-09T11:01:03.687Z,93209.87
2018-12-09T11:03:31.731Z,93215.87
2018-12-09T11:06:00.073Z,93217.41
2018-12-09T11:08:28.136Z,93215.40
2018-12-09T11:10:56.261Z,93212.25
2018-12-09T11:13:24.339Z,93217.84
2018-12-09T11:15:52.404Z,93217.45
2018-12-09T11:18:20.469Z,93221.03
2018-12-09T11:20:48.498Z,93215.39
2018-12-09T11:23:16.554Z,93220.27
2018-12-09T11:25:44.603Z,93223.00
2018-12-09T11:28:12.811Z,93230.02
2018-12-09T11:30:40.924Z,93229.52
2018-12-09T11:33:08.982Z,93220.92
2018-12-09T11:35:37.131Z,93232.33
2018-12-09T11:38:05.179Z,93245.34
2018-12-09T11:40:33.201Z,93237.72
2018-12-09T11:43:01.314Z,93236.80
2018-12-09T11:45:29.371Z,93242.80
2018-12-09T11:47:57.422Z,93246.16
2018-12-09T11:50:25.504Z,93256.68
2018-12-09T11:52:53.554Z,93258.78
2018-12-09T11:55:21.666Z,93272.09
2018-12-09T11:57:49.719Z,93272.05
2018-12-09T12:00:17.843Z,93267.27
2018-12-09T12:02:45.877Z,93262.12
2018-12-09T12:05:13.943Z,93259.56
2018-12-09T12:07:42.050Z,93262.84
2018-12-09T12:10:10.188Z,93254.92
2018-12-09T12:12:38.322Z,93256.73
2018-12-09T12:15:06.494Z,93262.89
2018-12-09T12:17:34.521Z,93254.25
2018-12-09T12:20:02.753Z,93259.55
2018-12-09T12:22:30.776Z,93254.19
2018-12-09T12:24:58.820Z,93262.10
2018-12-09T12:27:26.911Z,93259.56
2018-12-09T12:29:54.970Z,93254.19
2018-12-09T12:35:03.697Z,93248.53
2018-12-09T12:37:31.924Z,93257.48
2018-12-09T12:40:00.034Z,93252.89
2018-12-09T12:42:28.102Z,93254.14
2018-12-09T12:44:56.205Z,93252.75
2018-12-09T12:47:24.364Z,93255.70
2018-12-09T12:49:52.520Z,93257.52
2018-12-09T12:52:20.657Z,93258.73
2018-12-09T12:54:48.794Z,93264.63
2018-12-09T12:57:16.859Z,93267.36
2018-12-09T12:59:44.999Z,93266.50
2018-12-09T13:02:13.152Z,93271.86
2018-12-09T13:04:41.199Z,93274.28
2018-12-09T13:07:09.292Z,93285.47
2018-12-09T13:09:37.366Z,93282.78
2018-12-09T13:12:05.527Z,93294.31
2018-12-09T13:14:33.561Z,93290.86
2018-12-09T13:17:01.636Z,93302.32
2018-12-09T13:19:29.714Z,93309.02
2018-12-09T13:21:57.773Z,93314.19
2018-12-09T13:24:25.871Z,93310.86
2018-12-09T13:26:54.006Z,93316.70
2018-12-09T13:29:22.113Z,93325.31
2018-12-09T13:31:50.224Z,93323.84
2018-12-09T13:36:59.888Z,93327.98
2018-12-09T13:39:28.011Z,93328.03
2018-12-09T13:41:56.145Z,93341.09
2018-12-09T13:44:24.199Z,93339.64
2018-12-09T13:46:52.523Z,93339.87
2018-12-09T13:49:20.646Z,93349.56
2018-12-09T13:51:48.746Z,93351.55
2018-12-09T13:54:16.862Z,93352.40
2018-12-09T13:56:44.928Z,93357.42
2018-12-09T13:59:13.037Z,93363.67
2018-12-09T14:01:41.098Z,93367.36
2018-12-09T14:04:09.150Z,93373.48
2018-12-09T14:06:37.286Z,93381.27
2018-12-09T14:09:07.103Z,93386.22
2018-12-09T14:11:35.213Z,93392.03
2018-12-09T14:14:03.357Z,93392.84
2018-12-09T14:16:31.490Z,93395.45
2018-12-09T14:18:59.569Z,93400.05
2018-12-09T14:21:28.729Z,93398.28
2018-12-09T14:23:56.863Z,93395.95
2018-12-09T14:26:24.965Z,93405.40
2018-12-09T14:28:55.022Z,93407.80
2018-12-09T14:31:23.206Z,93417.70
2018-12-09T14:33:51.293Z,93407.68
2018-12-09T14:36:19.342Z,93408.86
2018-12-09T14:38:47.614Z,93419.81
2018-12-09T14:41:16.757Z,93424.92
2018-12-09T14:43:44.882Z,93432.66
2018-12-09T14:46:12.943Z,93433.33
2018-12-09T14:48:40.994Z,93443.23
2018-12-09T14:51:09.057Z,93434.80
2018-12-09T14:53:37.108Z,93445.06
2018-12-09T14:56:05.182Z,93436.36
2018-12-09T14:58:33.239Z,93449.84
2018-12-09T15:01:01.376Z,93446.84
2018-12-09T15:03:29.578Z,93461.84
2018-12-09T15:05:57.708Z,93455.73
2018-12-09T15:08:25.782Z,93462.06
2018-12-09T15:10:53.957Z,93463.55
2018-12-09T15:13:22.025Z,93485.84
2018-12-09T15:15:50.236Z,93490.83
2018-12-09T15:18:18.330Z,93494.05
2018-12-09T15:20:46.411Z,93495.88
2018-12-09T15:23:14.483Z,93501.33
2018-12-09T15:25:42.589Z,93510.46
2018-12-09T15:28:10.834Z,93509.36
2018-12-09T15:30:38.967Z,93517.34
2018-12-09T15:33:07.018Z,93519.33
2018-12-09T15:35:35.154Z,93526.62
2018-12-09T15:38:03.244Z,93537.55
2018-12-09T15:40:31.289Z,93538.66
2018-12-09T15:42:59.363Z,93542.40
2018-12-09T15:45:27.385Z,93541.44
2018-12-09T15:47:55.535Z,93558.36
2018-12-09T15:50:23.592Z,93545.63
2018-12-09T15:52:51.640Z,93574.17
2018-12-09T15:55:19.783Z,93567.77
2018-12-09T15:57:47.837Z,93567.77
2018-12-09T16:00:15.958Z,93569.81
2018-12-09T16:02:44.015Z,93569.13
2018-12-09T16:05:12.122Z,93588.56
2018-12-09T16:07:40.184Z,93595.25
2018-12-09T16:10:09.827Z,93611.46
2018-12-09T16:12:37.899Z,93610.97
2018-12-09T16:15:06.558Z,93619.88
2018-12-09T16:17:34.606Z,93628.03
2018-12-09T16:20:02.683Z,93620.21
2018-12-09T16:22:30.802Z,93623.81
2018-12-09T16:24:59.197Z,93623.33
2018-12-09T16:27:27.250Z,93631.87
2018-12-09T16:29:55.340Z,93623.38
2018-12-09T16:32:23.417Z,93653.73
2018-12-09T16:34:51.526Z,93646.01
2018-12-09T16:37:19.646Z,93645.01
2018-12-09T16:39:47.740Z,93667.88
2018-12-09T16:42:15.845Z,93659.67
2018-12-09T16:44:43.887Z,93664.07
2018-12-09T16:47:12.271Z,93671.02
2018-12-09T16:49:40.342Z,93681.83
2018-12-09T16:52:08.551Z,93687.50
2018-12-09T16:54:36.594Z,93692.38
2018-12-09T16:57:04.707Z,93700.36
2018-12-09T16:59:32.770Z,93688.25
2018-12-09T17:02:00.923Z,93706.25
2018-12-09T17:04:28.981Z,93707.09
2018-12-09T17:06:57.041Z,93716.06
2018-12-09T17:09:25.161Z,93716.59
2018-12-09T17:11:53.282Z,93718.68
2018-12-09T17:14:21.783Z,93736.23
2018-12-09T17:16:49.898Z,93746.02
2018-12-09T17:19:17.973Z,93761.88
2018-12-09T17:21:46.019Z,93756.31
2018-12-09T17:24:14.118Z,93759.41
2018-12-09T17:26:42.242Z,93765.06
2018-12-09T17:31:51.775Z,93773.31
2018-12-09T17:34:19.874Z,93787.24
2018-12-09T17:36:47.933Z,93800.39
2018-12-09T17:39:16.598Z,93792.40
2018-12-09T17:41:44.726Z,93797.27
2018-12-09T17:44:12.790Z,93796.20
2018-12-09T17:46:40.917Z,93803.20
2018-12-09T17:49:08.997Z,93808.34
2018-12-09T17:51:37.183Z,93811.46
2018-12-09T17:54:05.334Z,93814.81
2018-12-09T17:56:33.402Z,93826.42
2018-12-09T17:59:01.456Z,93838.28
2018-12-09T18:01:29.542Z,93842.89
2018-12-09T18:03:57.759Z,93844.97
2018-12-09T18:06:25.834Z,93843.05
2018-12-09T18:08:53.890Z,93852.57
2018-12-09T18:11:22.028Z,93867.12
2018-12-09T18:13:50.161Z,93866.20
2018-12-09T18:16:18.387Z,93867.20
2018-12-09T18:18:46.517Z,93873.23
2018-12-09T18:21:14.713Z,93873.91
2018-12-09T18:23:42.829Z,93875.08
2018-12-09T18:26:10.917Z,93882.28
2018-12-09T18:28:39.037Z,93883.78
2018-12-09T18:31:07.211Z,93888.08
2018-12-09T18:33:35.309Z,93914.81
2018-12-09T18:36:03.440Z,93903.36
2018-12-09T18:38:31.542Z,93910.91
2018-12-09T18:40:59.715Z,93912.83
2018-12-09T18:43:27.802Z,93948.39
2018-12-09T18:45:55.885Z,93939.56
2018-12-09T18:48:23.942Z,93954.80
2018-12-09T18:50:52.014Z,93940.63
2018-12-09T18:53:20.117Z,93958.09
2018-12-09T18:55:48.282Z,93956.25
2018-12-09T18:58:16.347Z,93965.37
2018-12-09T19:00:44.602Z,93974.58
2018-12-09T19:03:12.644Z,93980.30
2018-12-09T19:05:40.853Z,93973.79
2018-12-09T19:08:09.140Z,93978.45
2018-12-09T19:10:37.355Z,93992.45
2018-12-09T19:13:05.411Z,93989.08
2018-12-09T19:15:33.538Z,94020.67
2018-12-09T19:18:01.651Z,94008.48
2018-12-09T19:20:30.890Z,94018.80
2018-12-09T19:22:59.065Z,94042.67
2018-12-09T19:25:27.184Z,94024.38
2018-12-09T19:27:55.306Z,94027.05
2018-12-09T19:30:23.480Z,94029.02
2018-12-09T19:32:51.538Z,94040.34
2018-12-09T19:35:19.729Z,94035.34
2018-12-09T19:37:47.905Z,94057.77
2018-12-09T19:40:16.394Z,94038.31
2018-12-09T19:42:44.597Z,94065.88
2018-12-09T19:45:12.651Z,94078.23
2018-12-09T19:47:40.706Z,94068.67
2018-12-09T19:50:08.874Z,94087.97
2018-12-09T19:52:37.057Z,94097.73
2018-12-09T19:55:05.317Z,94101.81
2018-12-09T19:57:33.692Z,94114.13
2018-12-09T20:00:01.783Z,94109.80
2018-12-09T20:02:29.888Z,94113.91
2018-12-09T20:04:57.957Z,94142.81
2018-12-09T20:07:26.039Z,94111.55
2018-12-09T20:09:54.154Z,94125.98
2018-12-09T20:12:22.257Z,94135.91
2018-12-09T20:14:50.364Z,94139.55
2018-12-09T20:17:18.501Z,94141.98
2018-12-09T20:19:46.636Z,94151.69
2018-12-09T20:22:20.993Z,94150.64
2018-12-09T20:24:50.080Z,94159.78
2018-12-09T20:27:18.446Z,94168.56
2018-12-09T20:29:46.507Z,94157.73
2018-12-09T20:32:14.615Z,94168.98
2018-12-09T20:34:42.770Z,94161.86
2018-12-09T20:37:10.803Z,94164.33
2018-12-09T20:39:38.845Z,94177.97
2018-12-09T20:42:06.947Z,94184.49
2018-12-09T20:44:35.071Z,94182.81
2018-12-09T20:47:03.634Z,94179.80
2018-12-09T20:49:31.671Z,94187.95
2018-12-09T20:51:59.733Z,94208.89
2018-12-09T20:54:27.806Z,94197.10
2018-12-09T20:56:55.861Z,94204.50
2018-12-09T20:59:24.046Z,94212.55
2018-12-09T21:01:52.246Z,94205.64
2018-12-09T21:04:20.379Z,94217.48
2018-12-09T21:06:48.409Z,94218.14
2018-12-09T21:09:16.488Z,94223.73
2018-12-09T21:11:44.741Z,94226.65
2018-12-09T21:14:12.846Z,94231.87
2018-12-09T21:16:40.874Z,94229.81
2018-12-09T21:19:09.019Z,94237.38
2018-12-09T21:21:37.153Z,94228.42
2018-12-09T21:24:05.217Z,94240.41
2018-12-09T21:26:33.270Z,94241.19
2018-12-09T21:29:01.553Z,94245.50
2018-12-09T21:31:29.636Z,94238.43
2018-12-09T21:33:58.046Z,94251.01
2018-12-09T21:36:26.179Z,94282.38
2018-12-09T21:38:54.367Z,94255.78
2018-12-09T21:41:22.558Z,94267.19
2018-12-09T21:43:50.677Z,94265.29
2018-12-09T21:46:18.768Z,94272.34
2018-12-09T21:48:46.863Z,94263.84
2018-12-09T21:51:15.038Z,94277.18
2018-12-09T21:53:43.099Z,94282.98
2018-12-09T21:56:11.161Z,94294.11
2018-12-09T21:58:39.225Z,94305.84
2018-12-09T22:01:07.273Z,94305.16
2018-12-09T22:03:35.346Z,94310.11
2018-12-09T22:06:03.481Z,94331.59
2018-12-09T22:08:33.104Z,94318.77
2018-12-09T22:11:01.157Z,94321.09
2018-12-09T22:13:29.326Z,94336.73
2018-12-09T22:15:57.601Z,94347.33
2018-12-09T22:18:25.751Z,94354.06
2018-12-09T22:20:53.797Z,94318.83
2018-12-09T22:23:21.874Z,94351.07
2018-12-09T22:25:49.961Z,94346.76
2018-12-09T22:28:18.001Z,94350.52
2018-12-09T22:30:46.110Z,94349.08
2018-12-09T22:33:14.149Z,94377.61
2018-12-09T22:35:42.206Z,94366.41
2018-12-09T22:38:10.250Z,94376.70
2018-12-09T22:40:38.347Z,94378.93
2018-12-09T22:43:06.448Z,94382.92
2018-12-09T22:45:34.520Z,94388.79
2018-12-09T22:48:02.568Z,94393.63
2018-12-09T22:50:30.693Z,94388.09
2018-12-09T22:52:58.849Z,94405.89
2018-12-09T22:55:26.978Z,94391.17
2018-12-09T22:57:55.363Z,94412.91
2018-12-09T23:00:26.203Z,94412.13
2018-12-09T23:02:59.770Z,94415.73
2018-12-09T23:05:27.883Z,94428.86
2018-12-09T23:07:56.302Z,94412.65
2018-12-09T23:10:24.492Z,94421.46
2018-12-09T23:12:52.662Z,94422.28
2018-12-09T23:15:20.777Z,94422.39
2018-12-09T23:17:48.913Z,94445.23
2018-12-09T23:20:17.037Z,94459.58
2018-12-09T23:22:45.160Z,94454.51
2018-12-09T23:25:13.290Z,94452.87
2018-12-09T23:27:41.447Z,94460.27
2018-12-09T23:30:10.214Z,94461.26
2018-12-09T23:32:38.338Z,94476.22
2018-12-09T23:35:07.432Z,94469.67
2018-12-09T23:37:35.627Z,94471.94
2018-12-09T23:40:05.130Z,94473.09
2018-12-09T23:42:33.165Z,94467.97
2018-12-09T23:45:01.243Z,94468.30
2018-12-09T23:47:29.312Z,94470.56
2018-12-09T23:49:57.445Z,94467.70
2018-12-09T23:52:25.506Z,94469.22
2018-12-09T23:54:53.562Z,94452.89
2018-12-09T23:57:21.666Z,94480.27
2018-12-09T23:59:49.753Z,94456.33
